sensor_id;sensor_type;location;lat;lon;timestamp;P1;durP1;ratioP1;P2;durP2;ratioP2
16531;SDS011;8378;57.698;11.958;2022-11-11T00:01:00;7.78;;;4.70;;
16531;SDS011;8378;57.698;11.958;2022-11-11T00:03:27;7.05;;;4.35;;
16531;SDS011;8378;57.698;11.958;2022-11-11T00:05:53;7.40;;;4.47;;
16531;SDS011;8378;57.698;11.958;2022-11-11T00:08:24;7.35;;;4.60;;
16531;SDS011;8378;57.698;11.958;2022-11-11T00:10:49;8.00;;;4.63;;
16531;SDS011;8378;57.698;11.958;2022-11-11T00:13:15;7.18;;;4.65;;
16531;SDS011;8378;57.698;11.958;2022-11-11T00:15:41;7.00;;;4.93;;
16531;SDS011;8378;57.698;11.958;2022-11-11T00:18:08;7.15;;;4.53;;
16531;SDS011;8378;57.698;11.958;2022-11-11T00:20:56;7.45;;;5.30;;
16531;SDS011;8378;57.698;11.958;2022-11-11T00:23:41;6.88;;;4.93;;
16531;SDS011;8378;57.698;11.958;2022-11-11T00:26:25;7.35;;;4.70;;
16531;SDS011;8378;57.698;11.958;2022-11-11T00:28:51;7.35;;;5.13;;
16531;SDS011;8378;57.698;11.958;2022-11-11T00:31:17;6.50;;;4.22;;
16531;SDS011;8378;57.698;11.958;2022-11-11T00:33:43;6.70;;;4.82;;
16531;SDS011;8378;57.698;11.958;2022-11-11T00:36:08;7.63;;;5.03;;
16531;SDS011;8378;57.698;11.958;2022-11-11T00:38:34;6.30;;;4.55;;
16531;SDS011;8378;57.698;11.958;2022-11-11T00:41:14;5.80;;;4.63;;
16531;SDS011;8378;57.698;11.958;2022-11-11T00:43:45;6.18;;;4.50;;
16531;SDS011;8378;57.698;11.958;2022-11-11T00:46:12;9.27;;;4.72;;
16531;SDS011;8378;57.698;11.958;2022-11-11T00:48:57;6.88;;;4.80;;
16531;SDS011;8378;57.698;11.958;2022-11-11T00:51:42;6.78;;;4.40;;
16531;SDS011;8378;57.698;11.958;2022-11-11T00:54:08;6.60;;;4.30;;
16531;SDS011;8378;57.698;11.958;2022-11-11T00:56:34;7.68;;;4.60;;
16531;SDS011;8378;57.698;11.958;2022-11-11T00:59:03;8.00;;;4.20;;
16531;SDS011;8378;57.698;11.958;2022-11-11T01:01:31;6.68;;;4.18;;
16531;SDS011;8378;57.698;11.958;2022-11-11T01:03:57;6.95;;;3.70;;
16531;SDS011;8378;57.698;11.958;2022-11-11T01:06:23;7.35;;;3.90;;
16531;SDS011;8378;57.698;11.958;2022-11-11T01:08:49;7.50;;;4.30;;
16531;SDS011;8378;57.698;11.958;2022-11-11T01:11:16;8.43;;;4.35;;
16531;SDS011;8378;57.698;11.958;2022-11-11T01:13:44;7.82;;;3.63;;
16531;SDS011;8378;57.698;11.958;2022-11-11T01:16:11;7.82;;;4.25;;
16531;SDS011;8378;57.698;11.958;2022-11-11T01:18:42;6.80;;;3.53;;
16531;SDS011;8378;57.698;11.958;2022-11-11T01:21:12;6.72;;;3.95;;
16531;SDS011;8378;57.698;11.958;2022-11-11T01:23:40;7.13;;;3.78;;
16531;SDS011;8378;57.698;11.958;2022-11-11T01:26:12;5.50;;;3.10;;
16531;SDS011;8378;57.698;11.958;2022-11-11T01:28:38;5.95;;;3.70;;
16531;SDS011;8378;57.698;11.958;2022-11-11T01:31:04;7.28;;;3.58;;
16531;SDS011;8378;57.698;11.958;2022-11-11T01:33:31;5.40;;;3.17;;
16531;SDS011;8378;57.698;11.958;2022-11-11T01:36:13;7.50;;;3.88;;
16531;SDS011;8378;57.698;11.958;2022-11-11T01:38:41;6.22;;;3.25;;
16531;SDS011;8378;57.698;11.958;2022-11-11T01:41:09;6.43;;;3.40;;
16531;SDS011;8378;57.698;11.958;2022-11-11T01:43:54;7.82;;;3.53;;
16531;SDS011;8378;57.698;11.958;2022-11-11T01:46:24;4.47;;;2.70;;
16531;SDS011;8378;57.698;11.958;2022-11-11T01:48:52;4.60;;;3.17;;
16531;SDS011;8378;57.698;11.958;2022-11-11T01:54:37;7.70;;;3.40;;
16531;SDS011;8378;57.698;11.958;2022-11-11T01:57:48;5.65;;;3.10;;
16531;SDS011;8378;57.698;11.958;2022-11-11T02:00:05;5.57;;;2.90;;
16531;SDS011;8378;57.698;11.958;2022-11-11T02:02:37;4.90;;;2.85;;
16531;SDS011;8378;57.698;11.958;2022-11-11T02:05:04;5.00;;;3.17;;
16531;SDS011;8378;57.698;11.958;2022-11-11T02:07:50;6.90;;;3.00;;
16531;SDS011;8378;57.698;11.958;2022-11-11T02:10:20;6.25;;;3.05;;
16531;SDS011;8378;57.698;11.958;2022-11-11T02:12:47;6.88;;;3.33;;
16531;SDS011;8378;57.698;11.958;2022-11-11T02:15:31;7.00;;;3.05;;
16531;SDS011;8378;57.698;11.958;2022-11-11T02:17:58;6.93;;;3.22;;
16531;SDS011;8378;57.698;11.958;2022-11-11T02:20:25;6.25;;;3.05;;
16531;SDS011;8378;57.698;11.958;2022-11-11T02:25:43;7.15;;;3.15;;
16531;SDS011;8378;57.698;11.958;2022-11-11T02:28:13;5.72;;;2.80;;
16531;SDS011;8378;57.698;11.958;2022-11-11T02:30:39;5.80;;;2.95;;
16531;SDS011;8378;57.698;11.958;2022-11-11T02:33:05;5.40;;;2.95;;
16531;SDS011;8378;57.698;11.958;2022-11-11T02:35:35;6.95;;;3.17;;
16531;SDS011;8378;57.698;11.958;2022-11-11T02:38:03;6.05;;;3.08;;
16531;SDS011;8378;57.698;11.958;2022-11-11T02:40:37;4.68;;;2.53;;
16531;SDS011;8378;57.698;11.958;2022-11-11T02:43:03;6.13;;;2.53;;
16531;SDS011;8378;57.698;11.958;2022-11-11T02:45:30;6.68;;;3.05;;
16531;SDS011;8378;57.698;11.958;2022-11-11T02:47:55;6.47;;;2.80;;
16531;SDS011;8378;57.698;11.958;2022-11-11T02:50:21;3.85;;;2.50;;
16531;SDS011;8378;57.698;11.958;2022-11-11T02:52:46;6.93;;;3.10;;
16531;SDS011;8378;57.698;11.958;2022-11-11T02:55:12;5.68;;;2.83;;
16531;SDS011;8378;57.698;11.958;2022-11-11T02:57:38;6.55;;;3.25;;
16531;SDS011;8378;57.698;11.958;2022-11-11T03:00:04;5.78;;;2.80;;
16531;SDS011;8378;57.698;11.958;2022-11-11T03:02:30;4.55;;;2.75;;
16531;SDS011;8378;57.698;11.958;2022-11-11T03:04:56;5.72;;;2.88;;
16531;SDS011;8378;57.698;11.958;2022-11-11T03:07:22;5.47;;;2.63;;
16531;SDS011;8378;57.698;11.958;2022-11-11T03:09:49;6.03;;;2.92;;
16531;SDS011;8378;57.698;11.958;2022-11-11T03:12:15;6.60;;;2.90;;
16531;SDS011;8378;57.698;11.958;2022-11-11T03:14:40;5.53;;;2.95;;
16531;SDS011;8378;57.698;11.958;2022-11-11T03:17:06;6.53;;;3.10;;
16531;SDS011;8378;57.698;11.958;2022-11-11T03:19:50;6.95;;;3.03;;
16531;SDS011;8378;57.698;11.958;2022-11-11T03:22:16;6.38;;;2.70;;
16531;SDS011;8378;57.698;11.958;2022-11-11T03:24:41;7.78;;;3.03;;
16531;SDS011;8378;57.698;11.958;2022-11-11T03:27:25;5.50;;;2.70;;
16531;SDS011;8378;57.698;11.958;2022-11-11T03:29:51;4.40;;;2.60;;
16531;SDS011;8378;57.698;11.958;2022-11-11T03:32:16;7.68;;;3.17;;
16531;SDS011;8378;57.698;11.958;2022-11-11T03:34:42;5.20;;;2.53;;
16531;SDS011;8378;57.698;11.958;2022-11-11T03:37:09;5.70;;;2.80;;
16531;SDS011;8378;57.698;11.958;2022-11-11T03:39:54;7.38;;;3.00;;
16531;SDS011;8378;57.698;11.958;2022-11-11T03:42:20;4.45;;;2.33;;
16531;SDS011;8378;57.698;11.958;2022-11-11T03:44:45;5.88;;;2.80;;
16531;SDS011;8378;57.698;11.958;2022-11-11T03:47:11;5.45;;;2.67;;
16531;SDS011;8378;57.698;11.958;2022-11-11T03:49:37;5.65;;;2.92;;
16531;SDS011;8378;57.698;11.958;2022-11-11T03:52:03;7.20;;;2.95;;
16531;SDS011;8378;57.698;11.958;2022-11-11T03:54:28;5.13;;;2.63;;
16531;SDS011;8378;57.698;11.958;2022-11-11T03:56:54;7.10;;;3.00;;
16531;SDS011;8378;57.698;11.958;2022-11-11T03:59:42;5.72;;;2.80;;
16531;SDS011;8378;57.698;11.958;2022-11-11T04:02:12;5.25;;;2.58;;
16531;SDS011;8378;57.698;11.958;2022-11-11T04:04:56;6.43;;;2.88;;
16531;SDS011;8378;57.698;11.958;2022-11-11T04:07:40;5.57;;;2.92;;
16531;SDS011;8378;57.698;11.958;2022-11-11T04:10:24;6.13;;;2.72;;
16531;SDS011;8378;57.698;11.958;2022-11-11T04:12:50;5.10;;;2.70;;
16531;SDS011;8378;57.698;11.958;2022-11-11T04:15:35;7.18;;;3.33;;
16531;SDS011;8378;57.698;11.958;2022-11-11T04:18:19;6.00;;;2.83;;
16531;SDS011;8378;57.698;11.958;2022-11-11T04:21:04;7.60;;;3.10;;
16531;SDS011;8378;57.698;11.958;2022-11-11T04:23:48;4.55;;;2.58;;
16531;SDS011;8378;57.698;11.958;2022-11-11T04:26:14;6.20;;;3.00;;
16531;SDS011;8378;57.698;11.958;2022-11-11T04:28:39;6.03;;;2.78;;
16531;SDS011;8378;57.698;11.958;2022-11-11T04:31:23;4.75;;;2.45;;
16531;SDS011;8378;57.698;11.958;2022-11-11T04:33:49;4.82;;;2.97;;
16531;SDS011;8378;57.698;11.958;2022-11-11T04:36:14;4.70;;;2.80;;
16531;SDS011;8378;57.698;11.958;2022-11-11T04:38:40;6.32;;;2.88;;
16531;SDS011;8378;57.698;11.958;2022-11-11T04:41:24;6.88;;;3.30;;
16531;SDS011;8378;57.698;11.958;2022-11-11T04:43:50;6.82;;;3.00;;
16531;SDS011;8378;57.698;11.958;2022-11-11T04:46:34;6.68;;;3.03;;
16531;SDS011;8378;57.698;11.958;2022-11-11T04:48:59;7.75;;;2.80;;
16531;SDS011;8378;57.698;11.958;2022-11-11T04:51:25;7.43;;;3.15;;
16531;SDS011;8378;57.698;11.958;2022-11-11T04:54:10;7.43;;;3.00;;
16531;SDS011;8378;57.698;11.958;2022-11-11T04:56:36;6.35;;;2.85;;
16531;SDS011;8378;57.698;11.958;2022-11-11T04:59:18;5.65;;;2.83;;
16531;SDS011;8378;57.698;11.958;2022-11-11T05:01:44;6.25;;;3.30;;
16531;SDS011;8378;57.698;11.958;2022-11-11T05:04:29;5.95;;;2.90;;
16531;SDS011;8378;57.698;11.958;2022-11-11T05:06:55;5.85;;;2.72;;
16531;SDS011;8378;57.698;11.958;2022-11-11T05:09:39;8.10;;;2.95;;
16531;SDS011;8378;57.698;11.958;2022-11-11T05:12:04;6.63;;;3.03;;
16531;SDS011;8378;57.698;11.958;2022-11-11T05:14:30;5.22;;;2.80;;
16531;SDS011;8378;57.698;11.958;2022-11-11T05:17:14;6.97;;;2.92;;
16531;SDS011;8378;57.698;11.958;2022-11-11T05:19:58;5.55;;;2.90;;
16531;SDS011;8378;57.698;11.958;2022-11-11T05:22:43;5.13;;;2.60;;
16531;SDS011;8378;57.698;11.958;2022-11-11T05:25:09;4.57;;;2.72;;
16531;SDS011;8378;57.698;11.958;2022-11-11T05:27:53;6.38;;;2.92;;
16531;SDS011;8378;57.698;11.958;2022-11-11T05:30:20;7.20;;;3.22;;
16531;SDS011;8378;57.698;11.958;2022-11-11T05:32:47;6.22;;;3.17;;
16531;SDS011;8378;57.698;11.958;2022-11-11T05:35:13;6.15;;;2.97;;
16531;SDS011;8378;57.698;11.958;2022-11-11T05:37:40;4.47;;;2.58;;
16531;SDS011;8378;57.698;11.958;2022-11-11T05:40:06;4.68;;;2.60;;
16531;SDS011;8378;57.698;11.958;2022-11-11T05:42:32;5.57;;;2.67;;
16531;SDS011;8378;57.698;11.958;2022-11-11T05:44:58;6.63;;;2.85;;
16531;SDS011;8378;57.698;11.958;2022-11-11T05:47:24;6.38;;;3.00;;
16531;SDS011;8378;57.698;11.958;2022-11-11T05:49:50;5.75;;;3.45;;
16531;SDS011;8378;57.698;11.958;2022-11-11T05:52:16;5.57;;;3.00;;
16531;SDS011;8378;57.698;11.958;2022-11-11T05:54:43;7.20;;;3.15;;
16531;SDS011;8378;57.698;11.958;2022-11-11T05:57:09;5.28;;;2.60;;
16531;SDS011;8378;57.698;11.958;2022-11-11T05:59:34;5.85;;;2.80;;
16531;SDS011;8378;57.698;11.958;2022-11-11T06:02:00;6.82;;;3.13;;
16531;SDS011;8378;57.698;11.958;2022-11-11T06:04:26;6.63;;;3.00;;
16531;SDS011;8378;57.698;11.958;2022-11-11T06:06:52;5.70;;;2.90;;
16531;SDS011;8378;57.698;11.958;2022-11-11T06:09:18;6.43;;;2.67;;
16531;SDS011;8378;57.698;11.958;2022-11-11T06:11:44;5.70;;;2.90;;
16531;SDS011;8378;57.698;11.958;2022-11-11T06:14:09;4.72;;;2.45;;
16531;SDS011;8378;57.698;11.958;2022-11-11T06:16:35;4.38;;;2.40;;
16531;SDS011;8378;57.698;11.958;2022-11-11T06:19:00;5.88;;;2.85;;
16531;SDS011;8378;57.698;11.958;2022-11-11T06:21:28;6.45;;;2.70;;
16531;SDS011;8378;57.698;11.958;2022-11-11T06:23:55;5.50;;;3.10;;
16531;SDS011;8378;57.698;11.958;2022-11-11T06:26:20;7.78;;;3.47;;
16531;SDS011;8378;57.698;11.958;2022-11-11T06:28:47;4.60;;;2.55;;
16531;SDS011;8378;57.698;11.958;2022-11-11T06:31:14;6.28;;;2.97;;
16531;SDS011;8378;57.698;11.958;2022-11-11T06:33:41;6.72;;;3.08;;
16531;SDS011;8378;57.698;11.958;2022-11-11T06:36:08;6.00;;;2.83;;
16531;SDS011;8378;57.698;11.958;2022-11-11T06:38:35;8.63;;;3.13;;
16531;SDS011;8378;57.698;11.958;2022-11-11T06:41:01;8.85;;;3.60;;
16531;SDS011;8378;57.698;11.958;2022-11-11T06:43:27;7.15;;;2.83;;
16531;SDS011;8378;57.698;11.958;2022-11-11T06:45:53;8.88;;;3.35;;
16531;SDS011;8378;57.698;11.958;2022-11-11T06:48:20;7.40;;;3.42;;
16531;SDS011;8378;57.698;11.958;2022-11-11T06:50:46;9.27;;;3.75;;
16531;SDS011;8378;57.698;11.958;2022-11-11T06:53:12;9.82;;;3.70;;
16531;SDS011;8378;57.698;11.958;2022-11-11T06:55:39;8.75;;;3.92;;
16531;SDS011;8378;57.698;11.958;2022-11-11T06:58:09;11.02;;;4.72;;
16531;SDS011;8378;57.698;11.958;2022-11-11T07:00:43;12.93;;;4.75;;
16531;SDS011;8378;57.698;11.958;2022-11-11T07:03:10;14.30;;;4.78;;
16531;SDS011;8378;57.698;11.958;2022-11-11T07:05:38;13.82;;;4.53;;
16531;SDS011;8378;57.698;11.958;2022-11-11T07:08:06;12.48;;;4.10;;
16531;SDS011;8378;57.698;11.958;2022-11-11T07:10:38;12.05;;;4.63;;
16531;SDS011;8378;57.698;11.958;2022-11-11T07:13:05;14.48;;;5.15;;
16531;SDS011;8378;57.698;11.958;2022-11-11T07:15:31;12.77;;;5.18;;
16531;SDS011;8378;57.698;11.958;2022-11-11T07:17:58;12.68;;;5.18;;
16531;SDS011;8378;57.698;11.958;2022-11-11T07:20:24;14.80;;;5.68;;
16531;SDS011;8378;57.698;11.958;2022-11-11T07:22:50;13.18;;;5.35;;
16531;SDS011;8378;57.698;11.958;2022-11-11T07:25:15;14.93;;;5.65;;
16531;SDS011;8378;57.698;11.958;2022-11-11T07:27:41;14.90;;;5.32;;
16531;SDS011;8378;57.698;11.958;2022-11-11T07:30:08;13.15;;;5.40;;
16531;SDS011;8378;57.698;11.958;2022-11-11T07:32:34;14.65;;;5.53;;
16531;SDS011;8378;57.698;11.958;2022-11-11T07:35:00;18.88;;;6.13;;
16531;SDS011;8378;57.698;11.958;2022-11-11T07:37:26;16.58;;;5.43;;
16531;SDS011;8378;57.698;11.958;2022-11-11T07:39:52;12.90;;;5.03;;
16531;SDS011;8378;57.698;11.958;2022-11-11T07:42:18;14.43;;;5.18;;
16531;SDS011;8378;57.698;11.958;2022-11-11T07:44:44;13.68;;;5.18;;
16531;SDS011;8378;57.698;11.958;2022-11-11T07:47:10;12.18;;;4.97;;
16531;SDS011;8378;57.698;11.958;2022-11-11T07:49:36;13.43;;;5.00;;
16531;SDS011;8378;57.698;11.958;2022-11-11T07:52:01;12.02;;;4.93;;
16531;SDS011;8378;57.698;11.958;2022-11-11T07:54:27;10.77;;;4.50;;
16531;SDS011;8378;57.698;11.958;2022-11-11T07:56:52;11.70;;;4.50;;
16531;SDS011;8378;57.698;11.958;2022-11-11T07:59:18;10.02;;;4.20;;
16531;SDS011;8378;57.698;11.958;2022-11-11T08:01:44;9.05;;;4.20;;
16531;SDS011;8378;57.698;11.958;2022-11-11T08:04:09;13.00;;;4.70;;
16531;SDS011;8378;57.698;11.958;2022-11-11T08:06:35;11.55;;;4.60;;
16531;SDS011;8378;57.698;11.958;2022-11-11T08:09:00;7.55;;;4.10;;
16531;SDS011;8378;57.698;11.958;2022-11-11T08:11:26;10.45;;;5.07;;
16531;SDS011;8378;57.698;11.958;2022-11-11T08:14:11;8.60;;;4.40;;
16531;SDS011;8378;57.698;11.958;2022-11-11T08:16:36;8.43;;;4.38;;
16531;SDS011;8378;57.698;11.958;2022-11-11T08:19:02;9.90;;;4.70;;
16531;SDS011;8378;57.698;11.958;2022-11-11T08:21:27;9.30;;;4.40;;
16531;SDS011;8378;57.698;11.958;2022-11-11T08:23:53;10.90;;;4.95;;
16531;SDS011;8378;57.698;11.958;2022-11-11T08:26:19;8.77;;;4.82;;
16531;SDS011;8378;57.698;11.958;2022-11-11T08:28:47;9.90;;;4.50;;
16531;SDS011;8378;57.698;11.958;2022-11-11T08:31:13;7.72;;;3.83;;
16531;SDS011;8378;57.698;11.958;2022-11-11T08:33:39;9.40;;;4.78;;
16531;SDS011;8378;57.698;11.958;2022-11-11T08:36:04;9.63;;;5.05;;
16531;SDS011;8378;57.698;11.958;2022-11-11T08:38:32;9.30;;;5.32;;
16531;SDS011;8378;57.698;11.958;2022-11-11T08:40:58;9.38;;;5.22;;
16531;SDS011;8378;57.698;11.958;2022-11-11T08:43:28;9.07;;;5.57;;
16531;SDS011;8378;57.698;11.958;2022-11-11T08:45:56;10.43;;;5.72;;
16531;SDS011;8378;57.698;11.958;2022-11-11T08:48:23;10.93;;;6.00;;
16531;SDS011;8378;57.698;11.958;2022-11-11T08:50:50;9.30;;;5.57;;
16531;SDS011;8378;57.698;11.958;2022-11-11T08:53:16;8.88;;;5.72;;
16531;SDS011;8378;57.698;11.958;2022-11-11T08:55:42;9.88;;;6.00;;
16531;SDS011;8378;57.698;11.958;2022-11-11T08:58:09;10.80;;;5.57;;
16531;SDS011;8378;57.698;11.958;2022-11-11T09:00:35;10.45;;;5.70;;
16531;SDS011;8378;57.698;11.958;2022-11-11T09:03:05;8.20;;;5.55;;
16531;SDS011;8378;57.698;11.958;2022-11-11T09:05:32;8.55;;;4.72;;
16531;SDS011;8378;57.698;11.958;2022-11-11T09:08:01;8.82;;;4.93;;
16531;SDS011;8378;57.698;11.958;2022-11-11T09:10:30;8.25;;;4.60;;
16531;SDS011;8378;57.698;11.958;2022-11-11T09:12:56;9.73;;;5.32;;
16531;SDS011;8378;57.698;11.958;2022-11-11T09:15:23;10.95;;;5.40;;
16531;SDS011;8378;57.698;11.958;2022-11-11T09:17:49;6.80;;;4.18;;
16531;SDS011;8378;57.698;11.958;2022-11-11T09:20:14;7.57;;;4.47;;
16531;SDS011;8378;57.698;11.958;2022-11-11T09:22:41;7.63;;;4.20;;
16531;SDS011;8378;57.698;11.958;2022-11-11T09:25:08;7.80;;;4.43;;
16531;SDS011;8378;57.698;11.958;2022-11-11T09:27:33;9.00;;;4.70;;
16531;SDS011;8378;57.698;11.958;2022-11-11T09:29:59;7.65;;;4.22;;
16531;SDS011;8378;57.698;11.958;2022-11-11T09:32:25;7.95;;;4.38;;
16531;SDS011;8378;57.698;11.958;2022-11-11T09:34:50;7.90;;;4.43;;
16531;SDS011;8378;57.698;11.958;2022-11-11T09:37:16;6.97;;;4.20;;
16531;SDS011;8378;57.698;11.958;2022-11-11T09:39:41;6.68;;;4.15;;
16531;SDS011;8378;57.698;11.958;2022-11-11T09:45:22;6.53;;;3.75;;
16531;SDS011;8378;57.698;11.958;2022-11-11T09:48:17;6.78;;;3.72;;
16531;SDS011;8378;57.698;11.958;2022-11-11T09:51:10;6.50;;;3.53;;
16531;SDS011;8378;57.698;11.958;2022-11-11T09:53:46;6.35;;;3.20;;
16531;SDS011;8378;57.698;11.958;2022-11-11T09:56:18;6.65;;;3.50;;
16531;SDS011;8378;57.698;11.958;2022-11-11T09:58:50;7.18;;;3.53;;
16531;SDS011;8378;57.698;11.958;2022-11-11T10:01:24;6.38;;;3.42;;
16531;SDS011;8378;57.698;11.958;2022-11-11T10:03:56;6.10;;;2.95;;
16531;SDS011;8378;57.698;11.958;2022-11-11T10:06:32;6.75;;;3.53;;
16531;SDS011;8378;57.698;11.958;2022-11-11T10:09:05;6.78;;;3.17;;
16531;SDS011;8378;57.698;11.958;2022-11-11T10:14:09;6.50;;;3.28;;
16531;SDS011;8378;57.698;11.958;2022-11-11T10:16:52;6.25;;;3.50;;
16531;SDS011;8378;57.698;11.958;2022-11-11T10:19:33;6.55;;;3.20;;
16531;SDS011;8378;57.698;11.958;2022-11-11T10:22:22;6.93;;;3.60;;
16531;SDS011;8378;57.698;11.958;2022-11-11T10:25:37;6.07;;;3.15;;
16531;SDS011;8378;57.698;11.958;2022-11-11T10:27:45;7.13;;;3.10;;
16531;SDS011;8378;57.698;11.958;2022-11-11T10:32:46;7.13;;;3.35;;
16531;SDS011;8378;57.698;11.958;2022-11-11T10:35:26;6.10;;;2.92;;
16531;SDS011;8378;57.698;11.958;2022-11-11T10:37:58;6.88;;;3.38;;
16531;SDS011;8378;57.698;11.958;2022-11-11T10:40:27;5.63;;;3.20;;
16531;SDS011;8378;57.698;11.958;2022-11-11T10:42:58;7.32;;;3.10;;
16531;SDS011;8378;57.698;11.958;2022-11-11T10:45:26;7.35;;;3.30;;
16531;SDS011;8378;57.698;11.958;2022-11-11T10:48:16;7.28;;;3.00;;
16531;SDS011;8378;57.698;11.958;2022-11-11T10:50:47;4.70;;;2.55;;
16531;SDS011;8378;57.698;11.958;2022-11-11T10:53:24;5.68;;;3.10;;
16531;SDS011;8378;57.698;11.958;2022-11-11T10:58:53;5.85;;;3.25;;
16531;SDS011;8378;57.698;11.958;2022-11-11T11:01:31;7.65;;;3.17;;
16531;SDS011;8378;57.698;11.958;2022-11-11T11:04:03;7.85;;;3.45;;
16531;SDS011;8378;57.698;11.958;2022-11-11T11:06:33;7.07;;;3.10;;
16531;SDS011;8378;57.698;11.958;2022-11-11T11:09:25;6.88;;;3.10;;
16531;SDS011;8378;57.698;11.958;2022-11-11T11:12:08;6.53;;;3.17;;
16531;SDS011;8378;57.698;11.958;2022-11-11T11:14:41;6.35;;;3.00;;
16531;SDS011;8378;57.698;11.958;2022-11-11T11:17:12;5.95;;;3.00;;
16531;SDS011;8378;57.698;11.958;2022-11-11T11:19:43;7.25;;;3.45;;
16531;SDS011;8378;57.698;11.958;2022-11-11T11:22:12;6.88;;;2.55;;
16531;SDS011;8378;57.698;11.958;2022-11-11T11:24:37;6.40;;;3.30;;
16531;SDS011;8378;57.698;11.958;2022-11-11T11:27:04;6.97;;;3.20;;
16531;SDS011;8378;57.698;11.958;2022-11-11T11:32:19;6.00;;;2.90;;
16531;SDS011;8378;57.698;11.958;2022-11-11T11:34:50;4.80;;;2.65;;
16531;SDS011;8378;57.698;11.958;2022-11-11T11:37:17;5.75;;;2.70;;
16531;SDS011;8378;57.698;11.958;2022-11-11T11:39:44;6.13;;;2.95;;
16531;SDS011;8378;57.698;11.958;2022-11-11T11:42:26;6.93;;;3.20;;
16531;SDS011;8378;57.698;11.958;2022-11-11T11:44:56;7.43;;;3.45;;
16531;SDS011;8378;57.698;11.958;2022-11-11T11:47:33;5.70;;;2.72;;
16531;SDS011;8378;57.698;11.958;2022-11-11T12:01:21;6.68;;;3.00;;
16531;SDS011;8378;57.698;11.958;2022-11-11T12:04:03;6.22;;;2.80;;
16531;SDS011;8378;57.698;11.958;2022-11-11T12:07:02;6.10;;;2.90;;
16531;SDS011;8378;57.698;11.958;2022-11-11T12:10:02;8.15;;;3.25;;
16531;SDS011;8378;57.698;11.958;2022-11-11T12:13:06;8.50;;;3.45;;
16531;SDS011;8378;57.698;11.958;2022-11-11T12:15:51;17.13;;;6.20;;
16531;SDS011;8378;57.698;11.958;2022-11-11T12:18:43;9.35;;;4.43;;
16531;SDS011;8378;57.698;11.958;2022-11-11T12:21:12;8.32;;;3.75;;
16531;SDS011;8378;57.698;11.958;2022-11-11T12:23:48;8.35;;;4.13;;
16531;SDS011;8378;57.698;11.958;2022-11-11T12:38:35;6.82;;;3.13;;
16531;SDS011;8378;57.698;11.958;2022-11-11T12:41:10;7.40;;;3.20;;
16531;SDS011;8378;57.698;11.958;2022-11-11T12:44:07;7.90;;;3.20;;
16531;SDS011;8378;57.698;11.958;2022-11-11T13:00:59;6.10;;;2.67;;
16531;SDS011;8378;57.698;11.958;2022-11-11T13:03:49;5.53;;;2.70;;
16531;SDS011;8378;57.698;11.958;2022-11-11T13:12:19;5.05;;;2.50;;
16531;SDS011;8378;57.698;11.958;2022-11-11T13:17:49;6.07;;;2.78;;
16531;SDS011;8378;57.698;11.958;2022-11-11T13:22:47;5.60;;;2.70;;
16531;SDS011;8378;57.698;11.958;2022-11-11T13:25:19;5.05;;;2.58;;
16531;SDS011;8378;57.698;11.958;2022-11-11T13:33:20;5.90;;;2.70;;
16531;SDS011;8378;57.698;11.958;2022-11-11T13:35:57;5.70;;;2.60;;
16531;SDS011;8378;57.698;11.958;2022-11-11T13:40:51;8.90;;;4.68;;
16531;SDS011;8378;57.698;11.958;2022-11-11T13:43:24;13.07;;;6.20;;
16531;SDS011;8378;57.698;11.958;2022-11-11T13:45:58;12.40;;;5.93;;
16531;SDS011;8378;57.698;11.958;2022-11-11T13:48:26;16.42;;;6.43;;
16531;SDS011;8378;57.698;11.958;2022-11-11T13:51:13;14.50;;;5.85;;
16531;SDS011;8378;57.698;11.958;2022-11-11T13:53:58;11.40;;;4.80;;
16531;SDS011;8378;57.698;11.958;2022-11-11T13:59:27;12.57;;;4.32;;
16531;SDS011;8378;57.698;11.958;2022-11-11T14:02:13;12.05;;;4.90;;
16531;SDS011;8378;57.698;11.958;2022-11-11T14:12:49;8.27;;;4.20;;
16531;SDS011;8378;57.698;11.958;2022-11-11T14:18:00;9.95;;;4.50;;
16531;SDS011;8378;57.698;11.958;2022-11-11T14:20:51;6.50;;;3.42;;
16531;SDS011;8378;57.698;11.958;2022-11-11T14:28:35;9.45;;;3.83;;
16531;SDS011;8378;57.698;11.958;2022-11-11T14:33:48;8.98;;;3.78;;
16531;SDS011;8378;57.698;11.958;2022-11-11T14:41:47;8.07;;;3.97;;
16531;SDS011;8378;57.698;11.958;2022-11-11T14:49:46;6.25;;;3.20;;
16531;SDS011;8378;57.698;11.958;2022-11-11T14:52:16;7.55;;;2.97;;
16531;SDS011;8378;57.698;11.958;2022-11-11T14:57:17;6.35;;;3.42;;
16531;SDS011;8378;57.698;11.958;2022-11-11T14:59:49;5.30;;;3.13;;
16531;SDS011;8378;57.698;11.958;2022-11-11T15:02:40;6.00;;;3.60;;
16531;SDS011;8378;57.698;11.958;2022-11-11T15:05:10;8.85;;;4.63;;
16531;SDS011;8378;57.698;11.958;2022-11-11T15:10:32;7.88;;;4.43;;
16531;SDS011;8378;57.698;11.958;2022-11-11T15:13:39;7.15;;;4.20;;
16531;SDS011;8378;57.698;11.958;2022-11-11T15:16:28;7.13;;;4.28;;
16531;SDS011;8378;57.698;11.958;2022-11-11T15:30:12;9.02;;;4.72;;
16531;SDS011;8378;57.698;11.958;2022-11-11T15:32:59;7.97;;;3.88;;
16531;SDS011;8378;57.698;11.958;2022-11-11T15:35:34;5.53;;;3.60;;
16531;SDS011;8378;57.698;11.958;2022-11-11T15:38:08;7.25;;;3.88;;
16531;SDS011;8378;57.698;11.958;2022-11-11T15:43:19;7.82;;;4.07;;
16531;SDS011;8378;57.698;11.958;2022-11-11T15:45:53;8.88;;;4.28;;
16531;SDS011;8378;57.698;11.958;2022-11-11T15:48:22;9.00;;;4.18;;
16531;SDS011;8378;57.698;11.958;2022-11-11T15:50:52;6.53;;;3.85;;
16531;SDS011;8378;57.698;11.958;2022-11-11T15:53:26;8.15;;;3.85;;
16531;SDS011;8378;57.698;11.958;2022-11-11T15:55:54;6.63;;;3.97;;
16531;SDS011;8378;57.698;11.958;2022-11-11T15:58:28;6.45;;;4.03;;
16531;SDS011;8378;57.698;11.958;2022-11-11T16:00:56;6.97;;;4.35;;
16531;SDS011;8378;57.698;11.958;2022-11-11T16:03:33;5.95;;;4.28;;
16531;SDS011;8378;57.698;11.958;2022-11-11T16:06:12;7.43;;;4.40;;
16531;SDS011;8378;57.698;11.958;2022-11-11T16:08:40;6.70;;;4.18;;
16531;SDS011;8378;57.698;11.958;2022-11-11T16:11:10;8.32;;;4.93;;
16531;SDS011;8378;57.698;11.958;2022-11-11T16:13:39;8.35;;;6.43;;
16531;SDS011;8378;57.698;11.958;2022-11-11T16:16:13;6.97;;;4.90;;
16531;SDS011;8378;57.698;11.958;2022-11-11T16:18:45;8.10;;;5.45;;
16531;SDS011;8378;57.698;11.958;2022-11-11T16:24:07;7.15;;;5.05;;
16531;SDS011;8378;57.698;11.958;2022-11-11T16:26:52;8.05;;;5.20;;
16531;SDS011;8378;57.698;11.958;2022-11-11T16:29:19;7.35;;;4.90;;
16531;SDS011;8378;57.698;11.958;2022-11-11T16:31:48;7.22;;;4.70;;
16531;SDS011;8378;57.698;11.958;2022-11-11T16:37:07;7.00;;;4.88;;
16531;SDS011;8378;57.698;11.958;2022-11-11T16:39:35;6.28;;;4.80;;
16531;SDS011;8378;57.698;11.958;2022-11-11T16:42:01;6.55;;;4.32;;
16531;SDS011;8378;57.698;11.958;2022-11-11T16:44:44;6.97;;;4.63;;
16531;SDS011;8378;57.698;11.958;2022-11-11T16:47:43;8.80;;;4.50;;
16531;SDS011;8378;57.698;11.958;2022-11-11T16:52:41;18.73;;;16.73;;
16531;SDS011;8378;57.698;11.958;2022-11-11T16:55:32;28.80;;;24.05;;
16531;SDS011;8378;57.698;11.958;2022-11-11T16:58:02;22.10;;;18.92;;
16531;SDS011;8378;57.698;11.958;2022-11-11T17:00:34;20.25;;;17.25;;
16531;SDS011;8378;57.698;11.958;2022-11-11T17:03:14;20.88;;;17.98;;
16531;SDS011;8378;57.698;11.958;2022-11-11T17:08:27;19.75;;;17.65;;
16531;SDS011;8378;57.698;11.958;2022-11-11T17:11:08;19.65;;;16.92;;
16531;SDS011;8378;57.698;11.958;2022-11-11T17:13:35;16.15;;;13.60;;
16531;SDS011;8378;57.698;11.958;2022-11-11T17:16:02;15.60;;;13.95;;
16531;SDS011;8378;57.698;11.958;2022-11-11T17:18:40;14.27;;;12.77;;
16531;SDS011;8378;57.698;11.958;2022-11-11T17:21:06;15.57;;;12.40;;
16531;SDS011;8378;57.698;11.958;2022-11-11T17:23:32;14.10;;;11.35;;
16531;SDS011;8378;57.698;11.958;2022-11-11T17:25:58;13.88;;;10.50;;
16531;SDS011;8378;57.698;11.958;2022-11-11T17:28:25;12.60;;;10.07;;
16531;SDS011;8378;57.698;11.958;2022-11-11T17:30:51;11.70;;;9.50;;